sensor_id;sensor_type;location;lat;lon;timestamp;P1;P2;P0
54021;PMS7003;39936;51.058;17.220;2023-02-28T00:00:23;51;41;27
54021;PMS7003;39936;51.058;17.220;2023-02-28T00:03:50;59;44;28
54021;PMS7003;39936;51.058;17.220;2023-02-28T00:07:08;57;44;28
54021;PMS7003;39936;51.058;17.220;2023-02-28T00:10:49;52;41;26
54021;PMS7003;39936;51.058;17.220;2023-02-28T00:18:16;38;30;19
54021;PMS7003;39936;51.058;17.220;2023-02-28T00:22:22;47;39;24
54021;PMS7003;39936;51.058;17.220;2023-02-28T00:26:05;57;43;27
54021;PMS7003;39936;51.058;17.220;2023-02-28T00:34:24;43;33;21
54021;PMS7003;39936;51.058;17.220;2023-02-28T00:38:31;32;27;16
54021;PMS7003;39936;51.058;17.220;2023-02-28T00:41:46;37;35;21
54021;PMS7003;39936;51.058;17.220;2023-02-28T00:45:31;44;37;20
54021;PMS7003;39936;51.058;17.220;2023-02-28T00:49:18;38;30;20
54021;PMS7003;39936;51.058;17.220;2023-02-28T00:52:37;36;28;19
54021;PMS7003;39936;51.058;17.220;2023-02-28T00:56:09;45;37;24
54021;PMS7003;39936;51.058;17.220;2023-02-28T00:59:35;44;39;26
54021;PMS7003;39936;51.058;17.220;2023-02-28T01:02:57;59;44;28
54021;PMS7003;39936;51.058;17.220;2023-02-28T01:06:18;34;28;20
54021;PMS7003;39936;51.058;17.220;2023-02-28T01:10:10;46;36;21
54021;PMS7003;39936;51.058;17.220;2023-02-28T01:13:45;38;32;20
54021;PMS7003;39936;51.058;17.220;2023-02-28T01:21:34;46;39;25
54021;PMS7003;39936;51.058;17.220;2023-02-28T01:24:57;50;39;25
54021;PMS7003;39936;51.058;17.220;2023-02-28T01:28:27;49;38;26
54021;PMS7003;39936;51.058;17.220;2023-02-28T01:32:13;55;43;27
54021;PMS7003;39936;51.058;17.220;2023-02-28T01:35:40;51;40;26
54021;PMS7003;39936;51.058;17.220;2023-02-28T01:39:13;46;38;25
54021;PMS7003;39936;51.058;17.220;2023-02-28T01:42:50;41;34;20
54021;PMS7003;39936;51.058;17.220;2023-02-28T01:46:50;41;33;19
54021;PMS7003;39936;51.058;17.220;2023-02-28T01:50:15;44;35;23
54021;PMS7003;39936;51.058;17.220;2023-02-28T01:54:35;43;34;20
54021;PMS7003;39936;51.058;17.220;2023-02-28T01:58:33;34;29;17
54021;PMS7003;39936;51.058;17.220;2023-02-28T02:05:41;44;32;21
54021;PMS7003;39936;51.058;17.220;2023-02-28T02:09:15;46;35;21
54021;PMS7003;39936;51.058;17.220;2023-02-28T02:28:11;45;36;23
54021;PMS7003;39936;51.058;17.220;2023-02-28T02:43:30;32;27;18
54021;PMS7003;39936;51.058;17.220;2023-02-28T02:47:32;42;34;23
54021;PMS7003;39936;51.058;17.220;2023-02-28T02:51:13;43;33;20
54021;PMS7003;39936;51.058;17.220;2023-02-28T02:54:38;27;22;14
54021;PMS7003;39936;51.058;17.220;2023-02-28T02:58:32;31;27;17
54021;PMS7003;39936;51.058;17.220;2023-02-28T03:02:18;39;32;20
54021;PMS7003;39936;51.058;17.220;2023-02-28T03:05:44;39;31;17
54021;PMS7003;39936;51.058;17.220;2023-02-28T03:09:26;36;29;17
54021;PMS7003;39936;51.058;17.220;2023-02-28T03:17:20;36;29;17
54021;PMS7003;39936;51.058;17.220;2023-02-28T03:21:43;36;31;18
54021;PMS7003;39936;51.058;17.220;2023-02-28T03:30:10;31;25;16
54021;PMS7003;39936;51.058;17.220;2023-02-28T03:37:16;39;30;19
54021;PMS7003;39936;51.058;17.220;2023-02-28T03:41:05;29;25;16
54021;PMS7003;39936;51.058;17.220;2023-02-28T03:45:31;35;29;18
54021;PMS7003;39936;51.058;17.220;2023-02-28T03:49:01;41;29;19
54021;PMS7003;39936;51.058;17.220;2023-02-28T03:52:37;33;26;17
54021;PMS7003;39936;51.058;17.220;2023-02-28T03:56:07;36;32;18
54021;PMS7003;39936;51.058;17.220;2023-02-28T04:00:38;34;29;20
54021;PMS7003;39936;51.058;17.220;2023-02-28T04:04:36;38;28;18
54021;PMS7003;39936;51.058;17.220;2023-02-28T04:07:53;28;23;14
54021;PMS7003;39936;51.058;17.220;2023-02-28T04:11:39;31;25;15
54021;PMS7003;39936;51.058;17.220;2023-02-28T04:15:25;31;23;15
54021;PMS7003;39936;51.058;17.220;2023-02-28T04:18:45;33;31;19
54021;PMS7003;39936;51.058;17.220;2023-02-28T04:22:26;29;25;17
54021;PMS7003;39936;51.058;17.220;2023-02-28T04:25:59;32;24;13
54021;PMS7003;39936;51.058;17.220;2023-02-28T04:30:12;35;30;19
54021;PMS7003;39936;51.058;17.220;2023-02-28T04:33:53;33;27;17
54021;PMS7003;39936;51.058;17.220;2023-02-28T04:37:34;35;28;17
54021;PMS7003;39936;51.058;17.220;2023-02-28T04:41:16;32;28;16
54021;PMS7003;39936;51.058;17.220;2023-02-28T04:44:36;41;32;23
54021;PMS7003;39936;51.058;17.220;2023-02-28T04:51:53;35;27;18
54021;PMS7003;39936;51.058;17.220;2023-02-28T04:55:33;43;37;25
54021;PMS7003;39936;51.058;17.220;2023-02-28T04:59:52;41;35;22
54021;PMS7003;39936;51.058;17.220;2023-02-28T05:03:48;54;41;26
54021;PMS7003;39936;51.058;17.220;2023-02-28T05:07:30;50;39;26
54021;PMS7003;39936;51.058;17.220;2023-02-28T05:11:18;42;34;20
54021;PMS7003;39936;51.058;17.220;2023-02-28T05:18:37;31;27;16
54021;PMS7003;39936;51.058;17.220;2023-02-28T05:22:37;42;33;19
54021;PMS7003;39936;51.058;17.220;2023-02-28T05:26:37;40;34;21
54021;PMS7003;39936;51.058;17.220;2023-02-28T05:30:22;55;41;27
54021;PMS7003;39936;51.058;17.220;2023-02-28T05:34:41;47;39;24
54021;PMS7003;39936;51.058;17.220;2023-02-28T05:39:00;51;40;25
54021;PMS7003;39936;51.058;17.220;2023-02-28T05:42:46;46;38;24
54021;PMS7003;39936;51.058;17.220;2023-02-28T05:46:12;46;38;23
54021;PMS7003;39936;51.058;17.220;2023-02-28T05:49:37;59;46;30
54021;PMS7003;39936;51.058;17.220;2023-02-28T05:53:32;51;39;25
54021;PMS7003;39936;51.058;17.220;2023-02-28T05:57:20;70;51;32
54021;PMS7003;39936;51.058;17.220;2023-02-28T06:01:31;58;45;26
54021;PMS7003;39936;51.058;17.220;2023-02-28T06:05:32;48;39;23
54021;PMS7003;39936;51.058;17.220;2023-02-28T06:13:03;40;33;21
54021;PMS7003;39936;51.058;17.220;2023-02-28T06:16:27;46;38;22
54021;PMS7003;39936;51.058;17.220;2023-02-28T06:20:31;43;31;19
54021;PMS7003;39936;51.058;17.220;2023-02-28T06:23:50;42;35;20
54021;PMS7003;39936;51.058;17.220;2023-02-28T06:27:35;41;34;21
54021;PMS7003;39936;51.058;17.220;2023-02-28T06:31:17;48;41;23
54021;PMS7003;39936;51.058;17.220;2023-02-28T06:35:06;38;32;21
54021;PMS7003;39936;51.058;17.220;2023-02-28T06:38:58;39;29;19
54021;PMS7003;39936;51.058;17.220;2023-02-28T06:42:38;54;41;26
54021;PMS7003;39936;51.058;17.220;2023-02-28T06:46:20;48;39;26
54021;PMS7003;39936;51.058;17.220;2023-02-28T06:49:57;42;33;23
54021;PMS7003;39936;51.058;17.220;2023-02-28T06:54:26;49;38;25
54021;PMS7003;39936;51.058;17.220;2023-02-28T06:58:04;53;41;26
54021;PMS7003;39936;51.058;17.220;2023-02-28T07:01:46;46;37;23
54021;PMS7003;39936;51.058;17.220;2023-02-28T07:05:07;52;41;25
54021;PMS7003;39936;51.058;17.220;2023-02-28T07:08:47;48;40;24
54021;PMS7003;39936;51.058;17.220;2023-02-28T07:12:20;37;32;21
54021;PMS7003;39936;51.058;17.220;2023-02-28T07:15:40;37;30;19
54021;PMS7003;39936;51.058;17.220;2023-02-28T07:18:56;31;24;16
54021;PMS7003;39936;51.058;17.220;2023-02-28T07:22:46;46;29;19
54021;PMS7003;39936;51.058;17.220;2023-02-28T07:27:06;44;38;23
54021;PMS7003;39936;51.058;17.220;2023-02-28T07:31:10;41;33;21
54021;PMS7003;39936;51.058;17.220;2023-02-28T07:35:03;35;29;20
54021;PMS7003;39936;51.058;17.220;2023-02-28T07:38:44;40;33;20
54021;PMS7003;39936;51.058;17.220;2023-02-28T07:42:28;35;28;18
54021;PMS7003;39936;51.058;17.220;2023-02-28T07:46:12;39;29;17
54021;PMS7003;39936;51.058;17.220;2023-02-28T07:50:03;44;32;20
54021;PMS7003;39936;51.058;17.220;2023-02-28T07:53:22;31;27;17
54021;PMS7003;39936;51.058;17.220;2023-02-28T07:56:41;33;31;20
54021;PMS7003;39936;51.058;17.220;2023-02-28T08:00:21;43;32;19
54021;PMS7003;39936;51.058;17.220;2023-02-28T08:03:42;34;30;18
54021;PMS7003;39936;51.058;17.220;2023-02-28T08:07:01;36;23;16
54021;PMS7003;39936;51.058;17.220;2023-02-28T08:10:39;36;31;19
54021;PMS7003;39936;51.058;17.220;2023-02-28T08:14:16;20;16;10
54021;PMS7003;39936;51.058;17.220;2023-02-28T08:17:46;25;20;13
54021;PMS7003;39936;51.058;17.220;2023-02-28T08:21:23;27;23;15
54021;PMS7003;39936;51.058;17.220;2023-02-28T08:24:42;20;16;10
54021;PMS7003;39936;51.058;17.220;2023-02-28T08:28:43;22;16;11
54021;PMS7003;39936;51.058;17.220;2023-02-28T08:32:34;19;18;11
54021;PMS7003;39936;51.058;17.220;2023-02-28T08:36:56;22;18;13
54021;PMS7003;39936;51.058;17.220;2023-02-28T08:40:16;21;17;13
54021;PMS7003;39936;51.058;17.220;2023-02-28T08:43:53;21;18;10
54021;PMS7003;39936;51.058;17.220;2023-02-28T08:47:12;18;17;10
54021;PMS7003;39936;51.058;17.220;2023-02-28T08:50:28;21;13;9
54021;PMS7003;39936;51.058;17.220;2023-02-28T08:53:59;19;17;11
54021;PMS7003;39936;51.058;17.220;2023-02-28T08:57:19;25;18;11
54021;PMS7003;39936;51.058;17.220;2023-02-28T09:00:46;21;16;12
54021;PMS7003;39936;51.058;17.220;2023-02-28T09:04:56;21;17;10
54021;PMS7003;39936;51.058;17.220;2023-02-28T09:08:50;23;17;11
54021;PMS7003;39936;51.058;17.220;2023-02-28T09:12:41;22;18;12
54021;PMS7003;39936;51.058;17.220;2023-02-28T09:16:01;19;15;10
54021;PMS7003;39936;51.058;17.220;2023-02-28T09:19:51;21;20;12
54021;PMS7003;39936;51.058;17.220;2023-02-28T09:23:18;21;13;9
54021;PMS7003;39936;51.058;17.220;2023-02-28T09:26:57;23;19;13
54021;PMS7003;39936;51.058;17.220;2023-02-28T09:30:12;16;14;9
54021;PMS7003;39936;51.058;17.220;2023-02-28T09:33:55;26;17;10
54021;PMS7003;39936;51.058;17.220;2023-02-28T09:37:32;21;18;11
54021;PMS7003;39936;51.058;17.220;2023-02-28T09:41:20;16;10;7
54021;PMS7003;39936;51.058;17.220;2023-02-28T09:45:05;18;15;9
54021;PMS7003;39936;51.058;17.220;2023-02-28T09:49:08;16;12;9
54021;PMS7003;39936;51.058;17.220;2023-02-28T09:52:51;15;12;9
54021;PMS7003;39936;51.058;17.220;2023-02-28T09:56:25;17;14;8
54021;PMS7003;39936;51.058;17.220;2023-02-28T10:03:50;18;15;9
54021;PMS7003;39936;51.058;17.220;2023-02-28T10:07:25;19;12;7
54021;PMS7003;39936;51.058;17.220;2023-02-28T10:10:49;17;15;10
54021;PMS7003;39936;51.058;17.220;2023-02-28T10:14:27;18;15;10
54021;PMS7003;39936;51.058;17.220;2023-02-28T10:18:31;21;19;11
54021;PMS7003;39936;51.058;17.220;2023-02-28T10:22:05;26;21;13
54021;PMS7003;39936;51.058;17.220;2023-02-28T10:25:29;15;15;11
54021;PMS7003;39936;51.058;17.220;2023-02-28T10:28:46;18;15;9
54021;PMS7003;39936;51.058;17.220;2023-02-28T10:32:05;17;13;8
54021;PMS7003;39936;51.058;17.220;2023-02-28T10:35:47;18;16;10
54021;PMS7003;39936;51.058;17.220;2023-02-28T10:39:42;18;14;9
54021;PMS7003;39936;51.058;17.220;2023-02-28T10:43:18;16;14;9
54021;PMS7003;39936;51.058;17.220;2023-02-28T10:47:15;18;16;9
54021;PMS7003;39936;51.058;17.220;2023-02-28T10:51:10;16;12;7
54021;PMS7003;39936;51.058;17.220;2023-02-28T11:02:48;16;13;6
54021;PMS7003;39936;51.058;17.220;2023-02-28T11:06:30;18;13;7
54021;PMS7003;39936;51.058;17.220;2023-02-28T11:09:50;15;12;8
54021;PMS7003;39936;51.058;17.220;2023-02-28T11:13:32;10;10;7
54021;PMS7003;39936;51.058;17.220;2023-02-28T11:16:59;19;15;9
54021;PMS7003;39936;51.058;17.220;2023-02-28T11:20:21;16;14;9
54021;PMS7003;39936;51.058;17.220;2023-02-28T11:23:45;17;16;9
54021;PMS7003;39936;51.058;17.220;2023-02-28T11:30:41;14;10;7
54021;PMS7003;39936;51.058;17.220;2023-02-28T11:34:30;18;14;8
54021;PMS7003;39936;51.058;17.220;2023-02-28T11:37:49;15;13;9
54021;PMS7003;39936;51.058;17.220;2023-02-28T11:42:02;24;17;9
54021;PMS7003;39936;51.058;17.220;2023-02-28T11:59:08;14;12;8
54021;PMS7003;39936;51.058;17.220;2023-02-28T12:10:35;23;17;11
54021;PMS7003;39936;51.058;17.220;2023-02-28T12:28:57;22;21;12
54021;PMS7003;39936;51.058;17.220;2023-02-28T12:36:44;21;19;13
54021;PMS7003;39936;51.058;17.220;2023-02-28T12:40:09;30;25;17
54021;PMS7003;39936;51.058;17.220;2023-02-28T12:44:07;29;25;16
54021;PMS7003;39936;51.058;17.220;2023-02-28T12:48:04;26;22;15
54021;PMS7003;39936;51.058;17.220;2023-02-28T12:51:46;28;23;13
54021;PMS7003;39936;51.058;17.220;2023-02-28T12:59:01;23;21;15
54021;PMS7003;39936;51.058;17.220;2023-02-28T13:10:46;14;11;7
54021;PMS7003;39936;51.058;17.220;2023-02-28T13:18:46;35;28;16
54021;PMS7003;39936;51.058;17.220;2023-02-28T13:25:49;34;29;19
54021;PMS7003;39936;51.058;17.220;2023-02-28T13:29:34;37;31;18
54021;PMS7003;39936;51.058;17.220;2023-02-28T13:33:23;35;32;18
54021;PMS7003;39936;51.058;17.220;2023-02-28T13:45:27;42;36;24
54021;PMS7003;39936;51.058;17.220;2023-02-28T13:49:17;37;34;21
54021;PMS7003;39936;51.058;17.220;2023-02-28T13:52:23;39;35;21
54021;PMS7003;39936;51.058;17.220;2023-02-28T13:55:57;43;32;20
54021;PMS7003;39936;51.058;17.220;2023-02-28T14:07:27;44;39;24
54021;PMS7003;39936;51.058;17.220;2023-02-28T14:19:00;40;31;18
54021;PMS7003;39936;51.058;17.220;2023-02-28T14:26:29;40;33;20
54021;PMS7003;39936;51.058;17.220;2023-02-28T14:34:24;38;32;20
54021;PMS7003;39936;51.058;17.220;2023-02-28T14:38:32;32;26;17
54021;PMS7003;39936;51.058;17.220;2023-02-28T14:42:27;30;24;14
54021;PMS7003;39936;51.058;17.220;2023-02-28T14:46:22;41;32;20
54021;PMS7003;39936;51.058;17.220;2023-02-28T14:50:17;41;32;20
54021;PMS7003;39936;51.058;17.220;2023-02-28T14:53:59;32;28;18
54021;PMS7003;39936;51.058;17.220;2023-02-28T15:01:20;37;26;16
54021;PMS7003;39936;51.058;17.220;2023-02-28T15:05:23;35;24;15
54021;PMS7003;39936;51.058;17.220;2023-02-28T15:09:17;38;31;19
54021;PMS7003;39936;51.058;17.220;2023-02-28T15:13:05;31;22;14
54021;PMS7003;39936;51.058;17.220;2023-02-28T15:17:26;30;28;16
54021;PMS7003;39936;51.058;17.220;2023-02-28T15:20:45;33;31;17
54021;PMS7003;39936;51.058;17.220;2023-02-28T15:24:58;27;21;14
54021;PMS7003;39936;51.058;17.220;2023-02-28T15:28:58;29;23;16
54021;PMS7003;39936;51.058;17.220;2023-02-28T15:33:04;32;26;17
54021;PMS7003;39936;51.058;17.220;2023-02-28T15:36:45;26;23;16
54021;PMS7003;39936;51.058;17.220;2023-02-28T15:51:36;39;34;23
54021;PMS7003;39936;51.058;17.220;2023-02-28T15:55:43;44;33;21
54021;PMS7003;39936;51.058;17.220;2023-02-28T15:59:38;34;32;20
54021;PMS7003;39936;51.058;17.220;2023-02-28T16:03:57;56;45;29
54021;PMS7003;39936;51.058;17.220;2023-02-28T16:08:14;41;34;22
54021;PMS7003;39936;51.058;17.220;2023-02-28T16:12:02;48;37;23
54021;PMS7003;39936;51.058;17.220;2023-02-28T16:19:20;45;38;24
54021;PMS7003;39936;51.058;17.220;2023-02-28T16:22:49;59;47;28
54021;PMS7003;39936;51.058;17.220;2023-02-28T16:26:23;41;34;22
54021;PMS7003;39936;51.058;17.220;2023-02-28T16:29:49;43;37;24
54021;PMS7003;39936;51.058;17.220;2023-02-28T16:33:44;49;37;25
54021;PMS7003;39936;51.058;17.220;2023-02-28T16:38:11;41;35;20
54021;PMS7003;39936;51.058;17.220;2023-02-28T16:41:28;41;36;22
54021;PMS7003;39936;51.058;17.220;2023-02-28T16:44:47;50;39;25
54021;PMS7003;39936;51.058;17.220;2023-02-28T16:48:26;45;37;24
54021;PMS7003;39936;51.058;17.220;2023-02-28T16:52:18;50;40;26
54021;PMS7003;39936;51.058;17.220;2023-02-28T16:56:02;59;42;28
54021;PMS7003;39936;51.058;17.220;2023-02-28T17:00:30;57;45;28
54021;PMS7003;39936;51.058;17.220;2023-02-28T17:04:43;54;44;29
54021;PMS7003;39936;51.058;17.220;2023-02-28T17:11:57;66;49;30
54021;PMS7003;39936;51.058;17.220;2023-02-28T17:16:27;59;47;31
54021;PMS7003;39936;51.058;17.220;2023-02-28T17:19:51;62;48;30
54021;PMS7003;39936;51.058;17.220;2023-02-28T17:23:17;68;52;32
54021;PMS7003;39936;51.058;17.220;2023-02-28T17:26:57;76;55;34
54021;PMS7003;39936;51.058;17.220;2023-02-28T17:30:40;64;50;32
54021;PMS7003;39936;51.058;17.220;2023-02-28T17:34:33;58;46;29
54021;PMS7003;39936;51.058;17.220;2023-02-28T17:37:52;59;48;31
54021;PMS7003;39936;51.058;17.220;2023-02-28T17:41:17;57;46;28
54021;PMS7003;39936;51.058;17.220;2023-02-28T17:44:50;63;47;29
54021;PMS7003;39936;51.058;17.220;2023-02-28T17:48:27;59;43;28
54021;PMS7003;39936;51.058;17.220;2023-02-28T17:51:51;65;49;31
54021;PMS7003;39936;51.058;17.220;2023-02-28T17:55:47;60;45;29
54021;PMS7003;39936;51.058;17.220;2023-02-28T17:59:16;71;53;35
54021;PMS7003;39936;51.058;17.220;2023-02-28T18:03:24;70;53;32
54021;PMS7003;39936;51.058;17.220;2023-02-28T18:07:12;70;52;34
54021;PMS7003;39936;51.058;17.220;2023-02-28T18:11:21;76;55;34
54021;PMS7003;39936;51.058;17.220;2023-02-28T18:14:52;91;70;41
54021;PMS7003;39936;51.058;17.220;2023-02-28T18:18:09;92;68;43
54021;PMS7003;39936;51.058;17.220;2023-02-28T18:22:01;114;94;52
54021;PMS7003;39936;51.058;17.220;2023-02-28T18:25:52;122;96;55
54021;PMS7003;39936;51.058;17.220;2023-02-28T18:29:35;111;85;49
54021;PMS7003;39936;51.058;17.220;2023-02-28T18:32:52;88;68;41
54021;PMS7003;39936;51.058;17.220;2023-02-28T18:36:43;100;74;44
54021;PMS7003;39936;51.058;17.220;2023-02-28T18:41:13;96;71;43
54021;PMS7003;39936;51.058;17.220;2023-02-28T18:44:55;77;56;34
54021;PMS7003;39936;51.058;17.220;2023-02-28T18:48:37;82;59;36
54021;PMS7003;39936;51.058;17.220;2023-02-28T18:52:44;78;56;36
54021;PMS7003;39936;51.058;17.220;2023-02-28T18:56:09;71;55;35
54021;PMS7003;39936;51.058;17.220;2023-02-28T19:03:43;78;60;37
54021;PMS7003;39936;51.058;17.220;2023-02-28T19:07:20;84;64;40
54021;PMS7003;39936;51.058;17.220;2023-02-28T19:11:22;75;57;36
54021;PMS7003;39936;51.058;17.220;2023-02-28T19:14:59;91;68;42
54021;PMS7003;39936;51.058;17.220;2023-02-28T19:18:32;95;72;44
54021;PMS7003;39936;51.058;17.220;2023-02-28T19:26:59;93;68;41
54021;PMS7003;39936;51.058;17.220;2023-02-28T19:30:25;92;66;41
54021;PMS7003;39936;51.058;17.220;2023-02-28T19:34:13;98;79;48
54021;PMS7003;39936;51.058;17.220;2023-02-28T19:41:49;88;66;42
54021;PMS7003;39936;51.058;17.220;2023-02-28T19:45:11;93;68;42
54021;PMS7003;39936;51.058;17.220;2023-02-28T19:48:54;83;60;38
54021;PMS7003;39936;51.058;17.220;2023-02-28T19:52:32;86;65;41
54021;PMS7003;39936;51.058;17.220;2023-02-28T19:56:33;77;57;35
54021;PMS7003;39936;51.058;17.220;2023-02-28T20:00:26;75;56;36
54021;PMS7003;39936;51.058;17.220;2023-02-28T20:03:52;73;56;36
54021;PMS7003;39936;51.058;17.220;2023-02-28T20:07:19;75;58;37
54021;PMS7003;39936;51.058;17.220;2023-02-28T20:11:25;82;59;38
54021;PMS7003;39936;51.058;17.220;2023-02-28T20:15:45;87;65;39
54021;PMS7003;39936;51.058;17.220;2023-02-28T20:19:39;90;65;40
54021;PMS7003;39936;51.058;17.220;2023-02-28T20:23:53;98;75;44
54021;PMS7003;39936;51.058;17.220;2023-02-28T20:28:24;83;64;39
54021;PMS7003;39936;51.058;17.220;2023-02-28T20:32:15;89;70;42
54021;PMS7003;39936;51.058;17.220;2023-02-28T20:35:43;87;64;40
54021;PMS7003;39936;51.058;17.220;2023-02-28T20:39:31;73;56;35
54021;PMS7003;39936;51.058;17.220;2023-02-28T20:43:24;93;71;43
54021;PMS7003;39936;51.058;17.220;2023-02-28T20:46:45;86;66;41
54021;PMS7003;39936;51.058;17.220;2023-02-28T20:50:46;86;66;38
54021;PMS7003;39936;51.058;17.220;2023-02-28T20:54:34;83;61;38
54021;PMS7003;39936;51.058;17.220;2023-02-28T20:58:16;82;61;37
54021;PMS7003;39936;51.058;17.220;2023-02-28T21:01:34;82;61;37
54021;PMS7003;39936;51.058;17.220;2023-02-28T21:05:36;112;85;47
54021;PMS7003;39936;51.058;17.220;2023-02-28T21:09:06;88;64;39
54021;PMS7003;39936;51.058;17.220;2023-02-28T21:12:48;80;61;38
54021;PMS7003;39936;51.058;17.220;2023-02-28T21:17:31;75;57;36
54021;PMS7003;39936;51.058;17.220;2023-02-28T21:21:45;90;67;41
54021;PMS7003;39936;51.058;17.220;2023-02-28T21:25:03;79;60;38
54021;PMS7003;39936;51.058;17.220;2023-02-28T21:28:42;84;60;38
54021;PMS7003;39936;51.058;17.220;2023-02-28T21:33:00;90;67;41
54021;PMS7003;39936;51.058;17.220;2023-02-28T21:36:27;97;72;43
54021;PMS7003;39936;51.058;17.220;2023-02-28T21:40:11;96;69;42
54021;PMS7003;39936;51.058;17.220;2023-02-28T21:47:43;87;64;39
54021;PMS7003;39936;51.058;17.220;2023-02-28T21:51:30;87;63;39
54021;PMS7003;39936;51.058;17.220;2023-02-28T21:55:27;85;63;40
54021;PMS7003;39936;51.058;17.220;2023-02-28T21:59:09;93;70;40
54021;PMS7003;39936;51.058;17.220;2023-02-28T22:02:52;84;61;39
54021;PMS7003;39936;51.058;17.220;2023-02-28T22:06:39;99;74;44
54021;PMS7003;39936;51.058;17.220;2023-02-28T22:10:32;97;71;43
54021;PMS7003;39936;51.058;17.220;2023-02-28T22:15:04;97;76;45
54021;PMS7003;39936;51.058;17.220;2023-02-28T22:19:24;99;73;43
54021;PMS7003;39936;51.058;17.220;2023-02-28T22:22:42;91;67;41
54021;PMS7003;39936;51.058;17.220;2023-02-28T22:26:27;90;67;41
54021;PMS7003;39936;51.058;17.220;2023-02-28T22:34:35;73;55;36
54021;PMS7003;39936;51.058;17.220;2023-02-28T22:38:15;78;57;36
54021;PMS7003;39936;51.058;17.220;2023-02-28T22:42:33;79;59;36
54021;PMS7003;39936;51.058;17.220;2023-02-28T22:45:50;79;59;36
54021;PMS7003;39936;51.058;17.220;2023-02-28T22:53:42;64;48;31
54021;PMS7003;39936;51.058;17.220;2023-02-28T23:01:23;76;56;36
54021;PMS7003;39936;51.058;17.220;2023-02-28T23:05:10;81;59;36
54021;PMS7003;39936;51.058;17.220;2023-02-28T23:09:05;79;60;37
54021;PMS7003;39936;51.058;17.220;2023-02-28T23:12:28;87;65;40
54021;PMS7003;39936;51.058;17.220;2023-02-28T23:16:40;86;64;40
54021;PMS7003;39936;51.058;17.220;2023-02-28T23:20:39;82;62;39
54021;PMS7003;39936;51.058;17.220;2023-02-28T23:24:01;85;61;38
54021;PMS7003;39936;51.058;17.220;2023-02-28T23:27:51;87;62;40
54021;PMS7003;39936;51.058;17.220;2023-02-28T23:31:16;81;61;39
54021;PMS7003;39936;51.058;17.220;2023-02-28T23:38:35;82;63;40
54021;PMS7003;39936;51.058;17.220;2023-02-28T23:42:02;83;61;40
54021;PMS7003;39936;51.058;17.220;2023-02-28T23:46:06;81;61;38
54021;PMS7003;39936;51.058;17.220;2023-02-28T23:49:56;81;61;38
54021;PMS7003;39936;51.058;17.220;2023-02-28T23:53:34;83;62;38
54021;PMS7003;39936;51.058;17.220;2023-02-28T23:57:19;86;63;39
